createdAt,value
2018-01-23T00:01:45.740Z,48.70
2018-01-23T00:04:13.334Z,52.53
2018-01-23T00:06:40.911Z,85.13
2018-01-23T00:09:08.495Z,56.30
2018-01-23T00:11:36.076Z,48.53
2018-01-23T00:14:03.642Z,60.03
2018-01-23T00:16:31.217Z,52.97
2018-01-23T00:18:58.807Z,49.07
2018-01-23T00:21:26.365Z,58.17
2018-01-23T00:23:54.236Z,49.40
2018-01-23T00:26:21.912Z,43.00
2018-01-23T00:28:49.470Z,50.30
2018-01-23T00:31:17.091Z,44.73
2018-01-23T00:33:44.639Z,51.97
2018-01-23T00:36:12.209Z,49.20
2018-01-23T00:38:39.812Z,51.93
2018-01-23T00:41:07.373Z,51.00
2018-01-23T00:43:34.953Z,51.00
2018-01-23T00:46:02.584Z,53.27
2018-01-23T00:48:30.151Z,48.63
2018-01-23T00:50:57.730Z,47.63
2018-01-23T00:53:25.346Z,56.57
2018-01-23T00:55:52.956Z,50.43
2018-01-23T00:58:20.523Z,57.57
2018-01-23T01:00:48.096Z,60.17
2018-01-23T01:03:15.713Z,46.77
2018-01-23T01:05:43.307Z,49.87
2018-01-23T01:08:10.910Z,72.23
2018-01-23T01:10:38.471Z,54.50
2018-01-23T01:13:06.086Z,52.53
2018-01-23T01:15:33.686Z,49.47
2018-01-23T01:18:01.589Z,51.00
2018-01-23T01:20:29.157Z,64.87
2018-01-23T01:22:56.738Z,57.77
2018-01-23T01:25:24.348Z,61.30
2018-01-23T01:27:52.242Z,52.03
2018-01-23T01:30:19.840Z,61.43
2018-01-23T01:32:47.772Z,59.93
2018-01-23T01:35:15.321Z,58.30
2018-01-23T01:37:42.954Z,62.70
2018-01-23T01:40:10.536Z,57.30
2018-01-23T01:42:38.088Z,60.70
2018-01-23T01:45:05.988Z,66.30
2018-01-23T01:47:33.531Z,55.80
2018-01-23T01:50:01.093Z,61.20
2018-01-23T01:52:28.697Z,61.87
2018-01-23T01:54:56.249Z,64.60
2018-01-23T01:57:24.097Z,66.00
2018-01-23T01:59:51.681Z,65.50
2018-01-23T02:02:19.237Z,57.17
2018-01-23T02:04:47.083Z,60.47
2018-01-23T02:07:14.720Z,56.73
2018-01-23T02:09:42.313Z,57.70
2018-01-23T02:12:09.946Z,60.57
2018-01-23T02:14:37.826Z,58.73
2018-01-23T02:17:05.526Z,70.33
2018-01-23T02:19:33.129Z,65.73
2018-01-23T02:22:00.683Z,70.33
2018-01-23T02:24:28.295Z,75.53
2018-01-23T02:26:55.900Z,76.20
2018-01-23T02:29:23.463Z,72.40
2018-01-23T02:31:51.065Z,77.53
2018-01-23T02:34:18.661Z,66.13
2018-01-23T02:36:46.245Z,68.43
2018-01-23T02:39:13.799Z,85.67
2018-01-23T02:41:41.393Z,79.93
2018-01-23T02:44:09.280Z,72.70
2018-01-23T02:46:37.147Z,66.43
2018-01-23T02:49:04.709Z,77.07
2018-01-23T02:51:32.288Z,73.27
2018-01-23T02:54:00.239Z,73.80
2018-01-23T02:56:27.981Z,69.57
2018-01-23T02:58:55.556Z,75.53
2018-01-23T03:01:23.435Z,63.20
2018-01-23T03:03:50.982Z,79.67
2018-01-23T03:06:18.535Z,74.03
2018-01-23T03:08:46.353Z,84.17
2018-01-23T03:11:13.977Z,74.77
2018-01-23T03:13:41.526Z,76.47
2018-01-23T03:16:09.370Z,71.23
2018-01-23T03:18:36.916Z,89.57
2018-01-23T03:21:04.470Z,88.90
2018-01-23T03:23:32.046Z,76.17
2018-01-23T03:25:59.964Z,81.80
2018-01-23T03:28:27.583Z,77.03
2018-01-23T03:30:55.174Z,89.20
2018-01-23T03:33:22.763Z,81.77
2018-01-23T03:35:50.342Z,91.33
2018-01-23T03:38:17.931Z,73.60
2018-01-23T03:40:45.853Z,89.77
2018-01-23T03:43:13.410Z,79.30
2018-01-23T03:45:40.986Z,93.27
2018-01-23T03:48:08.559Z,81.63
2018-01-23T03:50:36.146Z,86.47
2018-01-23T03:53:03.752Z,86.50
2018-01-23T03:55:31.363Z,96.17
2018-01-23T03:57:58.939Z,79.77
2018-01-23T04:00:26.556Z,74.17
2018-01-23T04:02:54.405Z,79.13
2018-01-23T04:05:22.072Z,82.43
2018-01-23T04:07:49.708Z,87.13
2018-01-23T04:10:17.278Z,84.23
2018-01-23T04:12:44.874Z,73.37
2018-01-23T04:15:12.417Z,78.97
2018-01-23T04:17:40.035Z,78.13
2018-01-23T04:20:07.619Z,72.80
2018-01-23T04:22:35.177Z,81.17
2018-01-23T04:25:02.772Z,77.07
2018-01-23T04:27:30.626Z,89.30
2018-01-23T04:29:58.226Z,79.93
2018-01-23T04:32:25.837Z,67.57
2018-01-23T04:34:53.710Z,87.20
2018-01-23T04:37:21.263Z,77.53
2018-01-23T04:39:48.836Z,81.47
2018-01-23T04:42:16.453Z,78.03
2018-01-23T04:44:44.256Z,86.73
2018-01-23T04:47:11.853Z,80.53
2018-01-23T04:49:39.449Z,80.80
2018-01-23T04:52:07.082Z,82.40
2018-01-23T04:54:34.660Z,76.17
2018-01-23T04:57:02.264Z,70.93
2018-01-23T04:59:29.859Z,75.00
2018-01-23T05:01:57.461Z,73.27
2018-01-23T05:04:25.364Z,70.80
2018-01-23T05:06:52.938Z,73.10
2018-01-23T05:09:20.511Z,79.20
2018-01-23T05:11:48.112Z,79.97
2018-01-23T05:14:15.677Z,76.67
2018-01-23T05:16:43.258Z,72.23
2018-01-23T05:19:11.139Z,79.37
2018-01-23T05:21:38.912Z,88.37
2018-01-23T05:24:06.468Z,82.73
2018-01-23T05:26:34.051Z,80.37
2018-01-23T05:29:01.904Z,83.13
2018-01-23T05:31:29.508Z,88.17
2018-01-23T05:33:57.081Z,72.10
2018-01-23T05:36:24.665Z,71.57
2018-01-23T05:38:52.243Z,71.50
2018-01-23T05:41:19.816Z,77.73
2018-01-23T05:43:47.475Z,73.60
2018-01-23T05:46:15.087Z,72.93
2018-01-23T05:48:42.655Z,66.63
2018-01-23T05:51:10.213Z,76.13
2018-01-23T05:53:37.794Z,86.17
2018-01-23T05:56:05.355Z,77.90
2018-01-23T05:58:33.019Z,75.63
2018-01-23T06:01:00.623Z,67.73
2018-01-23T06:03:28.228Z,64.67
2018-01-23T06:05:56.121Z,66.97
2018-01-23T06:08:23.993Z,80.40
2018-01-23T06:10:51.578Z,67.70
2018-01-23T06:13:19.213Z,77.90
2018-01-23T06:15:47.082Z,73.70
2018-01-23T06:18:14.668Z,74.40
2018-01-23T06:20:42.527Z,70.60
2018-01-23T06:23:10.401Z,81.10
2018-01-23T06:25:38.035Z,79.53
2018-01-23T06:28:05.593Z,90.33
2018-01-23T06:30:33.162Z,83.60
2018-01-23T06:33:00.762Z,82.10
2018-01-23T06:35:28.395Z,82.13
2018-01-23T06:37:55.952Z,80.80
2018-01-23T06:40:23.595Z,78.73
2018-01-23T06:42:51.174Z,84.10
2018-01-23T06:45:18.737Z,86.57
2018-01-23T06:47:46.329Z,81.47
2018-01-23T06:50:13.934Z,89.53
2018-01-23T06:52:41.555Z,79.67
2018-01-23T06:55:09.156Z,81.87
2018-01-23T06:57:36.732Z,78.87
2018-01-23T07:00:04.389Z,76.37
2018-01-23T07:02:32.033Z,81.87
2018-01-23T07:04:59.937Z,80.80
2018-01-23T07:07:28.070Z,79.10
2018-01-23T07:09:55.686Z,78.13
2018-01-23T07:12:23.318Z,83.20
2018-01-23T07:14:50.922Z,86.27
2018-01-23T07:17:18.530Z,78.77
2018-01-23T07:19:46.433Z,83.13
2018-01-23T07:22:14.095Z,79.07
2018-01-23T07:24:41.735Z,80.77
2018-01-23T07:27:09.304Z,76.37
2018-01-23T07:29:36.883Z,82.43
2018-01-23T07:32:04.495Z,71.03
2018-01-23T07:34:32.337Z,95.13
2018-01-23T07:36:59.942Z,78.40
2018-01-23T07:39:27.521Z,79.60
2018-01-23T07:41:55.153Z,81.57
2018-01-23T07:44:22.759Z,82.93
2018-01-23T07:46:50.359Z,72.73
2018-01-23T07:49:17.936Z,74.17
2018-01-23T07:51:45.605Z,70.70
2018-01-23T07:54:13.242Z,69.50
2018-01-23T07:56:40.862Z,72.87
2018-01-23T07:59:08.482Z,64.53
2018-01-23T08:01:36.083Z,70.27
2018-01-23T08:04:03.717Z,70.00
2018-01-23T08:06:31.344Z,59.77
2018-01-23T08:08:58.937Z,60.87
2018-01-23T08:11:26.596Z,61.53
2018-01-23T08:13:54.178Z,76.33
2018-01-23T08:16:21.843Z,67.37
2018-01-23T08:18:49.527Z,90.27
2018-01-23T08:21:17.456Z,73.97
2018-01-23T08:23:46.952Z,72.17
2018-01-23T08:26:14.768Z,72.07
2018-01-23T08:28:42.408Z,76.47
2018-01-23T08:31:10.003Z,84.13
2018-01-23T08:33:37.615Z,65.57
2018-01-23T08:36:05.196Z,66.50
2018-01-23T08:38:32.782Z,64.53
2018-01-23T08:41:00.422Z,73.70
2018-01-23T08:43:27.980Z,83.60
2018-01-23T08:45:55.541Z,68.57
2018-01-23T08:48:23.181Z,68.23
2018-01-23T08:50:50.768Z,66.13
2018-01-23T08:53:18.367Z,61.70
2018-01-23T08:55:45.985Z,55.73
2018-01-23T08:58:13.598Z,63.63
2018-01-23T09:00:41.225Z,61.37
2018-01-23T09:03:08.780Z,52.10
2018-01-23T09:05:36.367Z,71.47
2018-01-23T09:08:04.034Z,63.97
2018-01-23T09:10:31.805Z,59.17
2018-01-23T09:12:59.379Z,51.40
2018-01-23T09:15:26.986Z,57.80
2018-01-23T09:17:54.551Z,54.63
2018-01-23T09:20:22.138Z,70.23
2018-01-23T09:22:49.855Z,57.83
2018-01-23T09:25:17.457Z,70.60
2018-01-23T09:27:45.024Z,60.27
2018-01-23T09:30:12.644Z,63.50
2018-01-23T09:32:40.228Z,55.70
2018-01-23T09:35:07.816Z,56.87
2018-01-23T09:37:35.373Z,68.93
2018-01-23T09:40:02.974Z,86.50
2018-01-23T09:42:31.012Z,75.43
2018-01-23T09:44:59.061Z,86.83
2018-01-23T09:47:27.309Z,100.10
2018-01-23T09:49:54.960Z,95.03
2018-01-23T09:52:22.549Z,94.37
2018-01-23T09:54:50.133Z,92.10
2018-01-23T09:57:17.755Z,102.40
2018-01-23T09:59:45.464Z,87.03
2018-01-23T10:02:13.138Z,89.90
2018-01-23T10:04:40.735Z,74.30
2018-01-23T10:07:08.290Z,93.33
2018-01-23T10:09:35.942Z,89.17
2018-01-23T10:12:03.584Z,90.27
2018-01-23T10:14:32.355Z,92.87
2018-01-23T10:16:59.920Z,91.30
2018-01-23T10:19:27.501Z,81.20
2018-01-23T10:21:55.075Z,91.53
2018-01-23T10:24:22.998Z,93.43
2018-01-23T10:26:50.627Z,93.17
2018-01-23T10:29:18.528Z,77.47
2018-01-23T10:31:46.140Z,109.37
2018-01-23T10:34:13.717Z,92.37
2018-01-23T10:36:41.325Z,83.50
2018-01-23T10:39:08.919Z,78.60
2018-01-23T10:41:36.513Z,83.10
2018-01-23T10:44:04.127Z,75.87
2018-01-23T10:46:31.764Z,81.13
2018-01-23T10:48:59.405Z,85.97
2018-01-23T10:51:26.983Z,81.07
2018-01-23T10:53:54.551Z,95.53
2018-01-23T10:56:22.141Z,87.00
2018-01-23T10:58:49.721Z,92.60
2018-01-23T11:01:17.334Z,78.30
2018-01-23T11:03:44.943Z,80.47
2018-01-23T11:06:12.528Z,83.30
2018-01-23T11:08:40.125Z,87.37
2018-01-23T11:11:07.727Z,83.33
2018-01-23T11:13:35.549Z,77.40
2018-01-23T11:16:03.128Z,70.70
2018-01-23T11:18:30.974Z,72.93
2018-01-23T11:20:59.530Z,69.83
2018-01-23T11:23:27.092Z,67.07
2018-01-23T11:25:54.778Z,95.50
2018-01-23T11:28:22.345Z,84.43
2018-01-23T11:30:50.215Z,77.43
2018-01-23T11:33:17.745Z,68.73
2018-01-23T11:35:45.364Z,63.87
2018-01-23T11:38:12.993Z,65.73
2018-01-23T11:40:40.802Z,60.27
2018-01-23T11:43:08.626Z,57.70
2018-01-23T11:45:36.530Z,67.50
2018-01-23T11:48:04.091Z,64.23
2018-01-23T11:50:31.668Z,66.57
2018-01-23T11:52:59.604Z,72.43
2018-01-23T11:55:27.264Z,71.97
2018-01-23T11:57:54.838Z,86.77
2018-01-23T12:00:22.430Z,75.13
2018-01-23T12:02:50.053Z,68.10
2018-01-23T12:05:17.627Z,71.97
2018-01-23T12:07:45.488Z,77.77
2018-01-23T12:10:13.060Z,82.20
2018-01-23T12:12:40.654Z,77.83
2018-01-23T12:15:08.210Z,79.53
2018-01-23T12:17:36.124Z,76.13
2018-01-23T12:20:03.703Z,75.17
2018-01-23T12:22:31.340Z,82.70
2018-01-23T12:24:58.943Z,84.37
2018-01-23T12:27:26.526Z,85.73
2018-01-23T12:29:54.121Z,83.83
2018-01-23T12:32:21.739Z,78.53
2018-01-23T12:34:49.353Z,86.67
2018-01-23T12:37:16.903Z,72.13
2018-01-23T12:39:44.518Z,74.63
2018-01-23T12:42:12.089Z,91.33
2018-01-23T12:44:39.667Z,77.30
2018-01-23T12:47:07.429Z,82.17
2018-01-23T12:49:35.322Z,73.37
2018-01-23T12:52:02.933Z,66.57
2018-01-23T12:54:30.500Z,86.30
2018-01-23T12:56:58.419Z,72.80
2018-01-23T12:59:25.996Z,75.00
2018-01-23T13:01:53.841Z,78.60
2018-01-23T13:04:21.730Z,70.57
2018-01-23T13:06:49.358Z,54.33
2018-01-23T13:09:16.945Z,73.43
2018-01-23T13:11:44.579Z,63.77
2018-01-23T13:14:12.181Z,70.80
2018-01-23T13:16:39.746Z,81.73
2018-01-23T13:19:07.360Z,64.23
2018-01-23T13:21:35.252Z,65.97
2018-01-23T13:24:02.792Z,61.07
2018-01-23T13:26:30.388Z,72.20
2018-01-23T13:28:57.950Z,63.63
2018-01-23T13:31:25.619Z,64.60
2018-01-23T13:33:53.589Z,73.67
2018-01-23T13:36:21.546Z,67.73
2018-01-23T13:38:49.157Z,73.23
2018-01-23T13:41:16.719Z,69.20
2018-01-23T13:43:44.385Z,67.77
2018-01-23T13:46:12.151Z,72.33
2018-01-23T13:48:39.786Z,69.47
2018-01-23T13:51:07.377Z,65.67
2018-01-23T13:53:34.995Z,67.43
2018-01-23T13:56:02.850Z,62.07
2018-01-23T13:58:30.930Z,75.17
2018-01-23T14:00:58.499Z,94.97
2018-01-23T14:03:26.076Z,74.33
2018-01-23T14:05:53.912Z,77.97
2018-01-23T14:08:21.517Z,72.37
2018-01-23T14:10:49.342Z,82.33
2018-01-23T14:13:16.907Z,64.67
2018-01-23T14:15:44.531Z,75.63
2018-01-23T14:18:12.661Z,77.93
2018-01-23T14:20:40.256Z,69.70
2018-01-23T14:23:07.884Z,67.43
2018-01-23T14:25:35.448Z,62.57
2018-01-23T14:28:03.058Z,65.83
2018-01-23T14:30:30.649Z,64.60
2018-01-23T14:32:58.233Z,79.93
2018-01-23T14:35:25.794Z,81.80
2018-01-23T14:37:53.393Z,76.40
2018-01-23T14:40:20.948Z,63.90
2018-01-23T14:42:48.514Z,67.47
2018-01-23T14:45:16.083Z,71.20
2018-01-23T14:47:43.641Z,80.30
2018-01-23T14:50:11.251Z,84.80
2018-01-23T14:52:39.101Z,74.00
2018-01-23T14:55:06.688Z,66.50
2018-01-23T14:57:34.531Z,77.10
2018-01-23T15:00:02.121Z,69.67
2018-01-23T15:02:29.772Z,77.50
2018-01-23T15:04:57.357Z,68.57
2018-01-23T15:07:24.937Z,81.10
2018-01-23T15:09:52.534Z,72.87
2018-01-23T15:12:20.130Z,65.93
2018-01-23T15:14:47.957Z,62.73
2018-01-23T15:17:15.562Z,84.27
2018-01-23T15:19:43.166Z,71.53
2018-01-23T15:22:10.763Z,82.07
2018-01-23T15:24:38.384Z,76.10
2018-01-23T15:27:05.955Z,79.33
2018-01-23T15:29:33.541Z,80.13
2018-01-23T15:32:01.164Z,74.10
2018-01-23T15:34:28.806Z,79.77
2018-01-23T15:36:56.799Z,82.23
2018-01-23T15:39:24.449Z,107.20
2018-01-23T15:41:52.006Z,74.17
2018-01-23T15:44:20.332Z,101.23
2018-01-23T15:46:48.031Z,79.20
2018-01-23T15:49:15.680Z,87.60
2018-01-23T15:51:43.538Z,81.93
2018-01-23T15:54:11.106Z,74.10
2018-01-23T15:56:38.680Z,75.47
2018-01-23T15:59:06.274Z,73.00
2018-01-23T16:01:33.897Z,75.57
2018-01-23T16:04:01.459Z,82.07
2018-01-23T16:06:29.301Z,82.77
2018-01-23T16:08:56.893Z,79.13
2018-01-23T16:11:24.744Z,70.37
2018-01-23T16:13:52.360Z,75.67
2018-01-23T16:16:19.919Z,78.70
2018-01-23T16:18:47.510Z,84.27
2018-01-23T16:21:15.128Z,77.40
2018-01-23T16:23:42.738Z,80.70
2018-01-23T16:26:10.609Z,77.83
2018-01-23T16:28:38.209Z,81.37
2018-01-23T16:31:05.793Z,82.63
2018-01-23T16:33:33.801Z,82.50
2018-01-23T16:36:01.406Z,101.83
2018-01-23T16:38:28.979Z,76.33
2018-01-23T16:40:56.576Z,73.40
2018-01-23T16:43:24.139Z,76.20
2018-01-23T16:45:51.768Z,77.17
2018-01-23T16:48:19.423Z,81.53
2018-01-23T16:50:47.001Z,80.33
2018-01-23T16:53:14.593Z,87.53
2018-01-23T16:55:42.459Z,76.33
2018-01-23T16:58:10.023Z,72.97
2018-01-23T17:00:37.585Z,87.03
2018-01-23T17:03:05.438Z,83.90
2018-01-23T17:05:33.035Z,82.80
2018-01-23T17:08:00.598Z,79.03
2018-01-23T17:10:28.191Z,78.03
2018-01-23T17:12:55.783Z,79.70
2018-01-23T17:15:23.416Z,73.93
2018-01-23T17:17:51.321Z,85.53
2018-01-23T17:20:18.874Z,94.73
2018-01-23T17:22:46.495Z,77.50
2018-01-23T17:25:14.094Z,89.00
2018-01-23T17:27:41.689Z,86.87
2018-01-23T17:30:09.274Z,78.60
2018-01-23T17:32:37.102Z,68.40
2018-01-23T17:35:05.086Z,99.90
2018-01-23T17:37:32.670Z,71.43
2018-01-23T17:40:00.265Z,81.03
2018-01-23T17:42:27.870Z,93.20
2018-01-23T17:44:55.809Z,101.80
2018-01-23T17:47:23.546Z,73.73
2018-01-23T17:49:51.121Z,69.87
2018-01-23T17:52:19.334Z,88.43
2018-01-23T17:54:47.251Z,79.77
2018-01-23T17:57:14.897Z,88.47
2018-01-23T17:59:42.622Z,73.13
2018-01-23T18:02:10.184Z,75.60
2018-01-23T18:04:37.784Z,83.17
2018-01-23T18:07:05.472Z,78.07
2018-01-23T18:09:33.200Z,72.63
2018-01-23T18:12:00.754Z,78.50
2018-01-23T18:14:28.611Z,84.00
2018-01-23T18:16:56.199Z,88.07
2018-01-23T18:19:23.758Z,63.07
2018-01-23T18:21:51.401Z,93.30
2018-01-23T18:24:19.261Z,70.57
2018-01-23T18:26:46.817Z,74.57
2018-01-23T18:29:14.464Z,70.47
2018-01-23T18:31:42.038Z,69.10
2018-01-23T18:34:09.647Z,74.10
2018-01-23T18:36:37.270Z,81.43
2018-01-23T18:39:04.922Z,64.93
2018-01-23T18:41:32.556Z,76.67
2018-01-23T18:44:00.189Z,69.03
2018-01-23T18:46:27.797Z,64.00
2018-01-23T18:48:55.372Z,68.97
2018-01-23T18:51:22.997Z,68.03
2018-01-23T18:53:50.564Z,56.73
2018-01-23T18:56:18.112Z,64.67
2018-01-23T18:58:45.717Z,68.10
2018-01-23T19:01:13.324Z,68.40
2018-01-23T19:03:40.929Z,72.70
2018-01-23T19:06:08.800Z,67.20
2018-01-23T19:08:36.465Z,64.90
2018-01-23T19:11:04.067Z,66.43
2018-01-23T19:13:31.613Z,70.43
2018-01-23T19:15:59.207Z,70.47
2018-01-23T19:18:26.792Z,67.83
2018-01-23T19:20:54.450Z,53.47
2018-01-23T19:23:22.044Z,58.83
2018-01-23T19:25:49.672Z,63.50
2018-01-23T19:28:18.758Z,45.87
2018-01-23T19:30:46.426Z,54.73
2018-01-23T19:33:17.438Z,54.43
2018-01-23T19:35:45.470Z,59.40
2018-01-23T19:38:13.137Z,53.53
2018-01-23T19:40:40.800Z,47.20
2018-01-23T19:43:08.424Z,52.23
2018-01-23T19:45:36.030Z,59.77
2018-01-23T19:48:03.988Z,56.10
2018-01-23T19:50:31.597Z,62.67
2018-01-23T19:52:59.184Z,52.57
2018-01-23T19:55:26.800Z,46.40
2018-01-23T19:57:54.413Z,45.33
2018-01-23T20:00:22.079Z,50.87
2018-01-23T20:02:49.719Z,56.43
2018-01-23T20:05:17.295Z,60.90
2018-01-23T20:07:44.919Z,57.77
2018-01-23T20:10:12.488Z,39.70
2018-01-23T20:12:40.085Z,51.50
2018-01-23T20:15:07.721Z,49.40
2018-01-23T20:17:35.281Z,39.10
2018-01-23T20:20:03.201Z,46.13
2018-01-23T20:22:30.773Z,52.20
2018-01-23T20:24:58.358Z,44.37
2018-01-23T20:27:26.007Z,50.30
2018-01-23T20:29:53.612Z,46.73
2018-01-23T20:32:21.230Z,40.00
2018-01-23T20:34:48.806Z,38.33
2018-01-23T20:37:16.449Z,43.33
2018-01-23T20:39:44.108Z,46.33
2018-01-23T20:42:11.723Z,37.17
2018-01-23T20:44:39.346Z,41.60
2018-01-23T20:47:07.095Z,40.80
2018-01-23T20:49:34.837Z,44.33
2018-01-23T20:52:02.427Z,38.37
2018-01-23T20:54:30.073Z,36.27
2018-01-23T20:56:57.773Z,45.10
2018-01-23T20:59:25.529Z,33.87
2018-01-23T21:01:53.129Z,37.63
2018-01-23T21:04:20.741Z,36.20
2018-01-23T21:06:48.436Z,34.13
2018-01-23T21:09:16.164Z,34.93
2018-01-23T21:11:43.806Z,40.30
2018-01-23T21:14:11.407Z,32.63
2018-01-23T21:16:39.099Z,52.03
2018-01-23T21:19:06.700Z,33.23
2018-01-23T21:21:34.357Z,35.77
2018-01-23T21:24:02.033Z,33.57
2018-01-23T21:26:29.884Z,35.57
2018-01-23T21:28:57.527Z,29.40
2018-01-23T21:31:25.112Z,32.40
2018-01-23T21:33:52.724Z,34.93
2018-01-23T21:36:20.317Z,35.17
2018-01-23T21:38:47.939Z,29.20
2018-01-23T21:41:15.497Z,31.97
2018-01-23T21:43:43.112Z,34.60
2018-01-23T21:46:10.758Z,27.10
2018-01-23T21:48:38.336Z,35.20
2018-01-23T21:51:05.931Z,32.50
2018-01-23T21:53:33.556Z,29.07
2018-01-23T21:56:01.411Z,34.33
2018-01-23T21:58:29.288Z,29.80
2018-01-23T22:00:56.879Z,26.90
2018-01-23T22:03:24.447Z,29.27
2018-01-23T22:05:52.035Z,26.90
2018-01-23T22:08:19.644Z,30.77
2018-01-23T22:10:47.223Z,35.13
2018-01-23T22:13:14.893Z,34.07
2018-01-23T22:15:42.493Z,33.63
2018-01-23T22:18:10.051Z,30.53
2018-01-23T22:20:37.680Z,25.80
2018-01-23T22:23:05.438Z,38.23
2018-01-23T22:25:33.599Z,27.10
2018-01-23T22:28:01.576Z,29.20
2018-01-23T22:30:29.134Z,27.80
2018-01-23T22:32:56.739Z,28.20
2018-01-23T22:35:24.541Z,20.83
2018-01-23T22:37:52.124Z,21.70
2018-01-23T22:40:19.698Z,25.77
2018-01-23T22:42:47.276Z,24.60
2018-01-23T22:45:14.896Z,27.30
2018-01-23T22:47:42.504Z,24.27
2018-01-23T22:50:10.076Z,22.40
2018-01-23T22:52:37.785Z,28.20
2018-01-23T22:55:05.427Z,26.13
2018-01-23T22:57:33.057Z,24.90
2018-01-23T23:00:00.647Z,28.00
2018-01-23T23:02:28.246Z,28.67
2018-01-23T23:04:55.830Z,21.97
2018-01-23T23:07:23.538Z,26.03
2018-01-23T23:09:51.144Z,30.60
2018-01-23T23:12:19.197Z,22.87
2018-01-23T23:14:46.773Z,19.83
2018-01-23T23:17:14.372Z,22.13
2018-01-23T23:19:41.954Z,28.63
2018-01-23T23:22:09.534Z,28.43
2018-01-23T23:24:37.100Z,24.73
2018-01-23T23:27:04.751Z,23.80
2018-01-23T23:29:32.352Z,27.83
2018-01-23T23:32:00.009Z,22.90
2018-01-23T23:34:27.973Z,29.33
2018-01-23T23:36:55.604Z,32.53
2018-01-23T23:39:23.205Z,23.80
2018-01-23T23:41:50.742Z,30.43
2018-01-23T23:44:18.325Z,20.20
2018-01-23T23:46:45.914Z,18.70
2018-01-23T23:49:13.501Z,22.17
2018-01-23T23:51:41.077Z,24.10
2018-01-23T23:54:08.637Z,25.63
2018-01-23T23:56:36.206Z,23.43
2018-01-23T23:59:04.086Z,26.70
